createdAt,value
2022-09-04T11:02:10.175Z,11.80
2022-09-04T11:03:48.099Z,12.20
2022-09-04T11:05:51.070Z,11.80
2022-09-04T11:07:32.199Z,10.60
2022-09-04T11:09:28.457Z,10.80
2022-09-04T11:11:03.332Z,12.80
2022-09-04T11:13:05.221Z,12.20
2022-09-04T11:14:58.723Z,10.40
2022-09-04T11:16:39.572Z,11.00
2022-09-04T11:18:31.299Z,11.00
2022-09-04T11:20:16.156Z,10.00
2022-09-04T11:22:12.637Z,12.20
2022-09-04T11:24:12.587Z,11.40
2022-09-04T11:26:19.108Z,9.00
2022-09-04T11:28:13.084Z,12.20
2022-09-04T11:29:55.894Z,10.00
2022-09-04T11:31:54.947Z,10.20
2022-09-04T11:33:44.894Z,11.80
2022-09-04T11:35:36.325Z,10.40
2022-09-04T11:37:41.724Z,9.00
2022-09-04T11:39:47.964Z,10.20
2022-09-04T11:41:24.882Z,11.20
2022-09-04T11:43:05.879Z,9.00
2022-09-04T11:45:16.760Z,9.60
2022-09-04T11:47:21.650Z,9.20
2022-09-04T11:49:18.336Z,10.80
2022-09-04T11:51:08.052Z,9.40
2022-09-04T11:52:58.029Z,10.00
2022-09-04T11:55:08.535Z,11.00
2022-09-04T11:56:47.173Z,8.80
2022-09-04T11:58:37.153Z,10.00
2022-09-04T12:00:13.432Z,8.80
2022-09-04T12:02:15.301Z,10.00
2022-09-04T12:04:25.840Z,10.40
2022-09-04T12:06:10.704Z,10.40
2022-09-04T12:08:02.407Z,10.60
2022-09-04T12:09:46.321Z,10.20
2022-09-04T12:11:42.010Z,9.40
2022-09-04T12:13:41.177Z,10.80
2022-09-04T12:15:55.308Z,4.20
2022-09-04T12:17:47.679Z,9.40
2022-09-04T12:19:27.011Z,11.00
2022-09-04T12:21:37.795Z,10.40
2022-09-04T12:23:21.295Z,7.20
2022-09-04T12:25:23.690Z,10.40
2022-09-04T12:27:49.394Z,9.00
2022-09-04T12:29:21.218Z,7.20
2022-09-04T12:30:59.325Z,7.80
2022-09-04T12:32:53.060Z,9.20
2022-09-04T12:34:55.310Z,9.00
2022-09-04T12:36:59.398Z,9.00
2022-09-04T12:39:10.721Z,8.60
2022-09-04T12:40:54.721Z,10.20
2022-09-04T12:42:36.775Z,8.00
2022-09-04T13:28:30.452Z,10.40
2022-09-04T13:30:25.651Z,8.20
2022-09-04T13:32:18.717Z,9.40
2022-09-04T13:34:13.286Z,11.00
2022-09-04T13:35:57.048Z,10.00
2022-09-04T13:37:49.179Z,9.80
2022-09-04T13:39:23.678Z,10.20
2022-09-04T13:41:13.896Z,10.40
2022-09-04T13:42:59.181Z,9.00
2022-09-04T13:44:40.871Z,10.40
2022-09-04T13:46:16.454Z,10.00
2022-09-04T13:47:54.250Z,9.00
2022-09-04T13:49:29.500Z,9.40
2022-09-04T13:51:29.922Z,9.20
2022-09-04T13:53:16.068Z,8.40
2022-09-04T13:54:53.094Z,9.60
2022-09-04T13:56:30.557Z,8.60
2022-09-04T13:58:20.141Z,9.60
2022-09-04T13:59:55.123Z,10.00
2022-09-04T14:01:29.774Z,12.00
2022-09-04T14:03:03.727Z,11.80
2022-09-04T14:04:46.186Z,10.80
2022-09-04T14:06:20.008Z,10.20
2022-09-04T14:07:58.756Z,9.40
2022-09-04T14:09:31.107Z,8.00
2022-09-04T14:11:32.987Z,11.60
2022-09-04T14:13:14.991Z,10.40
2022-09-04T14:14:59.656Z,8.40
2022-09-04T14:16:36.688Z,8.40
2022-09-04T14:18:23.958Z,7.60
2022-09-04T14:20:03.803Z,10.00
2022-09-04T14:21:35.522Z,10.60
2022-09-04T14:23:20.488Z,10.80
2022-09-04T14:24:56.683Z,5.00
2022-09-04T14:26:32.855Z,11.20
2022-09-04T14:28:16.769Z,10.00
2022-09-04T14:30:08.074Z,9.60
2022-09-04T14:31:48.951Z,10.00
2022-09-04T14:33:43.873Z,10.00
2022-09-04T14:35:31.709Z,46.25
2022-09-04T14:37:36.036Z,76.00
2022-09-04T14:39:23.029Z,56.50
2022-09-04T14:41:10.294Z,55.75
2022-09-04T14:42:48.659Z,62.50
2022-09-04T14:44:57.762Z,58.75
2022-09-04T14:47:08.039Z,58.00
2022-09-04T14:48:44.590Z,48.25
2022-09-04T14:50:16.939Z,49.50
2022-09-04T14:51:49.365Z,44.00
2022-09-04T14:53:32.373Z,45.00
2022-09-04T14:55:04.528Z,44.75
2022-09-04T14:56:49.580Z,73.50
2022-09-04T14:58:24.888Z,75.75
2022-09-04T15:00:03.235Z,79.20
2022-09-04T15:01:37.078Z,63.75
2022-09-04T15:03:15.393Z,50.00
2022-09-04T15:04:54.381Z,66.25
2022-09-04T15:07:10.808Z,58.75
2022-09-04T15:08:44.379Z,58.25
2022-09-04T15:10:47.578Z,59.25
2022-09-04T15:12:24.989Z,57.75
2022-09-04T15:14:05.823Z,55.50
2022-09-04T15:15:39.513Z,54.25
2022-09-04T15:17:26.190Z,61.75
2022-09-04T15:19:22.262Z,56.25
2022-09-04T15:21:08.935Z,53.50
2022-09-04T15:22:46.209Z,45.50
2022-09-04T15:24:27.349Z,43.50
2022-09-04T15:26:06.682Z,48.25
2022-09-04T15:27:51.262Z,46.00
2022-09-04T15:29:32.217Z,41.25
2022-09-04T15:31:15.963Z,39.75
2022-09-04T15:32:48.632Z,38.40
2022-09-04T15:34:25.862Z,43.00
2022-09-04T15:36:08.413Z,41.50
2022-09-04T15:37:40.141Z,33.00
2022-09-04T15:39:18.325Z,40.40
2022-09-04T15:41:16.043Z,34.00
2022-09-04T15:43:00.131Z,33.00
2022-09-04T15:44:42.881Z,36.00
2022-09-04T15:46:30.330Z,33.40
2022-09-04T15:48:15.684Z,33.20
2022-09-04T15:49:50.488Z,32.80
2022-09-04T15:51:22.159Z,34.20
2022-09-04T15:53:14.424Z,31.20
2022-09-04T15:54:46.099Z,30.80
2022-09-04T15:56:20.669Z,31.20
2022-09-04T15:57:52.336Z,28.80
2022-09-04T15:59:30.049Z,31.20
2022-09-04T16:01:14.245Z,31.00
2022-09-04T16:02:55.056Z,28.00
2022-09-04T16:04:37.734Z,27.60
2022-09-04T16:06:20.700Z,24.20
2022-09-04T16:08:05.378Z,25.40
2022-09-04T16:09:43.142Z,24.20
2022-09-04T16:11:31.543Z,26.20
2022-09-04T16:13:29.776Z,24.20
2022-09-04T16:15:07.080Z,23.80
2022-09-04T16:16:46.623Z,24.20
2022-09-04T16:18:23.242Z,22.80
2022-09-04T16:20:10.370Z,28.60
2022-09-04T16:21:48.517Z,27.20
2022-09-04T16:23:30.002Z,31.00
2022-09-04T16:25:11.353Z,34.60
2022-09-04T16:26:49.348Z,33.20
2022-09-04T16:28:39.382Z,31.60
2022-09-04T16:30:11.612Z,39.40
2022-09-04T16:31:43.352Z,40.75
2022-09-04T16:33:27.628Z,48.50
2022-09-04T16:35:05.843Z,45.00
2022-09-04T16:36:45.911Z,36.40
2022-09-04T16:38:24.066Z,35.20
2022-09-04T16:40:27.146Z,46.75
2022-09-04T16:42:10.912Z,40.75
2022-09-04T16:44:05.639Z,43.25
2022-09-04T16:45:59.137Z,55.25
2022-09-04T16:47:51.192Z,47.25
2022-09-04T16:49:29.148Z,51.00
2022-09-04T16:51:25.052Z,48.25
2022-09-04T16:53:12.722Z,48.25
2022-09-04T16:54:49.161Z,42.75
2022-09-04T16:56:34.581Z,40.50
2022-09-04T16:58:11.053Z,41.00
2022-09-04T16:59:49.652Z,42.75
2022-09-04T17:01:31.075Z,39.75
2022-09-04T17:03:09.971Z,39.40
2022-09-04T17:04:47.697Z,36.00
2022-09-04T17:06:32.111Z,35.00
2022-09-04T17:08:22.196Z,39.40
2022-09-04T17:10:47.363Z,36.40
2022-09-04T17:12:29.024Z,37.80
2022-09-04T17:14:08.583Z,38.80
2022-09-04T17:16:11.905Z,34.80
2022-09-04T17:17:45.031Z,34.40
2022-09-04T17:19:16.765Z,34.40
2022-09-04T17:26:35.990Z,32.80
2022-09-04T17:26:44.394Z,32.40
2022-09-04T17:28:56.163Z,31.80
2022-09-04T17:29:18.804Z,29.40
2022-09-04T17:31:05.503Z,31.00
2022-09-04T17:37:06.076Z,32.40
2022-09-04T17:40:10.328Z,30.40
2022-09-04T17:40:35.395Z,191.50
2022-09-04T17:40:37.076Z,186.00
2022-09-04T17:41:39.443Z,169.00
2022-09-04T17:43:23.269Z,138.67
2022-09-04T17:45:03.422Z,126.75
2022-09-04T17:46:43.693Z,112.25
2022-09-04T17:48:19.210Z,114.75
2022-09-04T17:49:52.204Z,118.25
2022-09-04T17:51:28.055Z,83.50
2022-09-04T17:53:01.035Z,100.25
2022-09-04T17:54:37.254Z,98.50
2022-09-04T17:56:18.278Z,102.75
2022-09-04T17:58:24.380Z,101.25
2022-09-04T18:00:09.620Z,96.25
2022-09-04T18:01:59.198Z,97.75
2022-09-04T18:04:20.345Z,101.00
2022-09-04T18:06:01.561Z,91.75
2022-09-04T18:08:08.379Z,90.25
2022-09-04T18:09:38.301Z,89.25
2022-09-04T18:11:32.911Z,95.25
2022-09-04T18:13:36.646Z,99.75
2022-09-04T18:15:34.530Z,86.75
2022-09-04T18:17:16.223Z,84.50
2022-09-04T18:18:58.770Z,82.75
2022-09-04T18:20:38.959Z,84.00
2022-09-04T18:22:49.917Z,89.25
2022-09-04T18:24:23.391Z,75.40
2022-09-04T18:26:25.202Z,78.75
2022-09-04T18:28:28.921Z,82.00
2022-09-04T18:37:02.511Z,78.50
2022-09-04T18:37:08.165Z,81.60
2022-09-04T18:37:17.223Z,78.40
2022-09-04T18:37:20.116Z,76.80
2022-09-04T18:39:08.450Z,71.00
2022-09-04T18:43:18.219Z,66.00
2022-09-04T18:50:25.139Z,63.50
2022-09-04T18:50:38.072Z,55.25
2022-09-04T18:50:50.779Z,56.00
2022-09-04T18:51:03.096Z,59.00
2022-09-04T18:51:03.227Z,62.50
2022-09-04T18:52:42.376Z,57.75
2022-09-04T18:54:21.563Z,55.50
2022-09-04T18:56:06.348Z,51.50
2022-09-04T18:57:59.634Z,47.50
2022-09-04T18:59:32.966Z,53.75
2022-09-04T19:01:33.987Z,48.50
2022-09-04T19:03:12.022Z,46.75
2022-09-04T19:04:46.222Z,44.25
2022-09-04T19:06:33.048Z,44.50
2022-09-04T19:08:05.987Z,40.75
2022-09-04T19:09:48.711Z,39.25
2022-09-04T19:11:31.714Z,42.50
2022-09-04T19:13:10.103Z,41.75
2022-09-04T19:14:42.012Z,38.60
2022-09-04T19:16:35.052Z,41.75
2022-09-04T19:18:35.917Z,34.40
2022-09-04T19:20:11.648Z,39.20
2022-09-04T19:21:57.718Z,36.00
2022-09-04T19:23:34.021Z,35.60
2022-09-04T19:25:07.870Z,35.00
2022-09-04T19:26:42.726Z,33.00
2022-09-04T19:28:20.526Z,35.60
2022-09-04T19:30:18.329Z,36.40
2022-09-04T19:32:05.788Z,35.80
2022-09-04T19:33:57.713Z,34.00
2022-09-04T19:35:32.358Z,36.60
2022-09-04T19:38:35.761Z,35.00
2022-09-04T19:45:22.081Z,33.00
2022-09-04T19:46:08.503Z,33.80
2022-09-04T19:46:19.139Z,33.00
2022-09-04T19:46:40.023Z,32.00
2022-09-04T19:48:23.117Z,109.50
2022-09-04T19:53:22.409Z,90.25
2022-09-04T19:53:31.576Z,67.25
2022-09-04T19:54:14.484Z,78.80
2022-09-04T19:55:47.324Z,76.60
2022-09-04T19:57:40.428Z,80.00
2022-09-04T19:59:46.007Z,76.40
2022-09-04T20:01:21.378Z,76.20
2022-09-04T20:02:55.512Z,74.60
2022-09-04T20:04:41.276Z,60.50
2022-09-04T20:06:21.825Z,72.80
2022-09-04T20:08:31.044Z,67.75
2022-09-04T20:10:09.146Z,67.00
2022-09-04T20:11:46.086Z,68.25
2022-09-04T20:13:25.710Z,70.75
2022-09-04T20:15:18.119Z,67.75
2022-09-04T20:17:29.446Z,70.25
2022-09-04T20:19:27.574Z,69.00
2022-09-04T20:21:07.809Z,114.25
2022-09-04T20:22:56.311Z,130.50
2022-09-04T20:24:39.880Z,113.50
2022-09-04T20:26:21.529Z,102.50
2022-09-04T20:28:17.679Z,86.25
2022-09-04T20:29:55.937Z,95.75
2022-09-04T20:31:35.895Z,95.50
2022-09-04T20:33:19.401Z,99.50
2022-09-04T20:34:53.727Z,90.25
2022-09-04T20:36:29.368Z,91.75
2022-09-04T20:38:23.107Z,94.50
2022-09-04T20:40:26.948Z,93.50
2022-09-04T20:42:04.923Z,94.00
2022-09-04T20:43:44.949Z,89.00
2022-09-04T20:46:42.216Z,86.00
2022-09-04T20:52:44.133Z,86.75
2022-09-04T20:52:50.863Z,86.25
2022-09-04T20:52:54.181Z,83.50
2022-09-04T20:54:28.208Z,82.50
2022-09-04T20:56:36.084Z,90.50
2022-09-04T21:03:08.143Z,89.50
2022-09-04T21:03:14.259Z,91.00
2022-09-04T21:03:21.233Z,85.75
2022-09-04T21:04:42.535Z,85.40
2022-09-04T21:06:30.500Z,84.50
2022-09-04T21:08:16.604Z,75.80
2022-09-04T21:10:26.828Z,71.25
2022-09-04T21:12:25.535Z,66.50
2022-09-04T21:14:06.134Z,85.50
2022-09-04T21:15:47.101Z,78.40
2022-09-04T21:17:39.109Z,73.40
2022-09-04T21:19:29.799Z,88.00
2022-09-04T21:21:26.244Z,69.50
2022-09-04T21:23:24.471Z,73.80
2022-09-04T21:25:33.089Z,76.60
2022-09-04T21:27:27.467Z,67.20
2022-09-04T21:29:17.257Z,66.00
2022-09-04T21:31:08.864Z,78.00
2022-09-04T21:33:26.982Z,67.80
2022-09-04T21:35:29.715Z,71.25
2022-09-04T21:37:39.960Z,78.20
2022-09-04T21:39:37.018Z,65.50
2022-09-04T21:41:23.467Z,73.60
2022-09-04T21:43:38.585Z,69.75
2022-09-04T21:45:37.565Z,72.00
2022-09-04T21:48:00.449Z,76.40
2022-09-04T21:49:51.495Z,71.60
2022-09-04T21:51:54.465Z,76.00
2022-09-04T21:54:02.595Z,68.75
2022-09-04T22:02:39.684Z,71.50
2022-09-04T22:02:43.256Z,75.40
2022-09-04T22:02:43.811Z,72.80
2022-09-04T22:04:35.354Z,68.50
2022-09-04T22:06:46.002Z,68.50
2022-09-04T22:13:26.608Z,68.25
2022-09-04T22:13:31.715Z,64.75
2022-09-04T22:13:31.819Z,66.50
2022-09-04T22:14:42.150Z,71.25
2022-09-04T22:16:29.335Z,67.25
2022-09-04T22:18:23.955Z,58.75
2022-09-04T22:20:43.038Z,64.00
2022-09-04T22:22:39.234Z,74.00
2022-09-04T22:24:47.872Z,67.75
2022-09-04T22:26:46.878Z,64.50
2022-09-04T22:28:43.129Z,60.25
2022-09-04T22:30:17.990Z,60.50
2022-09-04T22:32:10.152Z,74.80
2022-09-04T22:34:19.966Z,69.25
